默认 日期 大小 文件数 浏览量 最新下载 xml
push.2009磁力链接相关资源由用户搜索指令自动获取,结果来源于网络,本站不存储任何资料,亦不承担任何责任,请于24小时内删除,搜索到230个磁力,用时4ms。
    {"Sample": {"Sample.ts": 2746304}, "ImGCT.png": 94274, "Like Us.txt": 32, "FeedBack.txt": 33, "ReadMe CT.txt": 442, "Read Me Please.txt": 99, "Push.2009.720p x264 [Dual Audio] [Hindi+English] DD Hindi 2.0 English 5.1 By ThOr SSEC (1).mkv": 535603157}
创建时间: 2018-12-20 09:35:28 大小:513.5 MB 文件数量:7 热度:9 最近下载:2024-12-15 11:43:02
    {"Zapraszamy na ex-torrenty.org.url": 112, "Push.2009.MULTI.BluRay.1080p.x264-LTN.mkv": 3300689185}
创建时间: 2018-12-21 02:18:13 大小:3.07 GB 文件数量:2 热度:8 最近下载:2024-12-05 18:40:01
    {"Subs": {"English.srt": 60353}, "RARBG.COM.avi": 1190542, "RARBG.COM.txt": 34, "Push.2009.BRRip.XviD.MP3-RARBG.avi": 1507771888, "Push.2009.BRRip.XviD.MP3-RARBG.nfo": 3185}
创建时间: 2018-12-21 04:15:02 大小:1.41 GB 文件数量:5 热度:7 最近下载:2024-12-01 23:39:02
    {"- Kolla denna.jpg": 32098, "- www.torrentstart.nu 1.jpg": 54692, "- www.torrentstart.nu 2.jpg": 124061, "Push.2009.Swesub.DVDrip.Torrentstart.avi": 736604160}
创建时间: 2018-12-21 20:47:24 大小:702.68 MB 文件数量:4 热度:8 最近下载:2024-12-02 21:37:01
    {"CHD-Push.2009.nfo": 7064, "Push_AutoSpilt.rar": 2001482, "Push-1080p-SAMPLE.mkv": 104894248, "Push.2009.Bluray.1080p.DTSHD.x264-CHD.mkv": 9354862215}
创建时间: 2018-12-22 00:53:18 大小:8.81 GB 文件数量:4 热度:13 最近下载:2025-02-15 11:23:03
    {"Subs": {"2_Eng.srt": 67020}, "RARBG.txt": 30, "Push.2009.1080p.BluRay.H264.AAC-RARBG.mp4": 2283414584}
创建时间: 2018-12-22 01:16:34 大小:2.13 GB 文件数量:3 热度:5 最近下载:2024-12-03 00:32:02
    {"www.YTS.AM.jpg": 58132, "Push.2009.1080p.BluRay.x264-[YTS.AM].mp4": 1913390724}
创建时间: 2018-12-23 05:35:31 大小:1.78 GB 文件数量:2 热度:8 最近下载:2024-12-01 22:27:02
    ... 52movieba.txt": 0, "异能.Push.2009.BD1080P.X264.AAC.English.CHS ... -ENG.52movieba.mp4": 2278414043, "Push.2009.1080p.BluRay.x264.TrueHD.7 ...
创建时间: 2018-12-23 23:36:21 大小:2.12 GB 文件数量:6 热度:75 最近下载:2025-09-12 11:06:10
    {"Sample.avi": 12017664, "Read iNFO.txt": 2103, "Push (2009).avi": 2209640448, "Ale Torrenty Team enjoy !.url": 111, "Upload by azjatycki aka FOXMASTER.txt": 121}
创建时间: 2018-12-24 07:31:04 大小:2.07 GB 文件数量:5 热度:8 最近下载:2024-12-03 02:27:01
    ... .jpg": 189858, "tracked_by_h33t_com.txt": 23, "Push (2009) DVDRip-MAXSPEED.nfo": 1026, "Torrent ... from Demonoid.com.txt": 47, "Push (2009) DVDRip-MAXSPEED www.torentz.3xforum ...
创建时间: 2018-12-24 18:31:10 大小:705.74 MB 文件数量:8 热度:10 最近下载:2024-12-02 22:49:02
    {"minta.mkv": 286525055, "Push.2009.1080p.BluRay.Remux.AVC.DTS-HD.MA5.1.HuN-MaTeK.mkv": 30512969139, "Push.2009.1080p.BluRay.Remux.AVC.DTS-HD.MA5.1.HuN-MaTeK.nfo": 1044}
创建时间: 2018-12-24 23:48:30 大小:28.68 GB 文件数量:3 热度:16 最近下载:2025-02-26 21:05:01
    {"sample.mkv": 21297007, "alt-torrent.com.mp4": 4001994, "www.alt-torrent.com.txt": 266, "POR FAVOR!.....COMPARTAN!.txt": 117, "Push (2009) 1080p LAT - ZeiZ.jpg": 99056, "Push (2009) 1080p LAT - ZeiZ.mkv": 2814494231}
创建时间: 2018-12-27 01:21:25 大小:2.64 GB 文件数量:6 热度:8 最近下载:2024-12-07 03:41:02
    {"Push.2009.720p.BRRip.Feel-Free.mp4": 2548382949, "Push.2009.720p.BRRip.Feel-Free.smi": 91814}
创建时间: 2018-12-29 22:14:56 大小:2.37 GB 文件数量:2 热度:8 最近下载:2024-12-16 20:11:01
    {"Push.2009.4K.UltraHD.BluRay.2160p.x264.TrueHD.Atmos.7.1.AAC.7.1-POOP.mkv": 11485554897}
创建时间: 2019-01-01 08:34:21 大小:10.7 GB 文件数量:1 热度:12 最近下载:2025-02-15 10:53:02
    {"Push[2009]DvDrip[Eng]-FXG.avi": 733835264, "Push[2009]DvDrip[Eng]-FXG.smi": 91776}
创建时间: 2019-01-02 03:09:15 大小:699.93 MB 文件数量:2 热度:7 最近下载:2024-12-06 07:18:01
    {"Subs": {"ReadMe.txt": 454, "Push.2009.DVDRip.srt": 64269}, "COVER.jpg": ... , "ReadMe.txt": 454}, "Push.2009.DVDRip.rar": 1153433692, "Push.Official.Trailer.2009.mp4": 39662002}
创建时间: 2019-01-02 05:07:26 大小:1.11 GB 文件数量:11 热度:7 最近下载:2024-12-13 03:44:01
    {"Movie": {"Push (2009) 720p BrRip x264 dual audio ( ... ) by Lokioddin.mkv": 894374393}, "Sample": {"Push (2009) 720p BrRip x264 dual audio ... from Silvertorrent.org.txt": 86, "Push (2009) 720p BrRip x264 dual audio ...
创建时间: 2019-01-02 15:41:04 大小:869.33 MB 文件数量:23 热度:9 最近下载:2024-09-01 18:57:03
    {"sample": {"push-open.matte-sd-nibe.sample.mkv": 11731222}, "push-open.matte-sd-nibe.mkv": 1478404443, "push-open.matte-sd-nibe.nfo": 7800}
创建时间: 2019-01-03 03:20:28 大小:1.39 GB 文件数量:3 热度:4 最近下载:2022-11-12 10:12:23
    {"Push.2009.PL.BRRip.XviD-GR4PE.avi": 734056744, "Zapraszamy na ex-torrenty.org.url": 112}
创建时间: 2019-01-04 00:02:23 大小:700.05 MB 文件数量:2 热度:7 最近下载:2024-12-06 07:40:01
    ... -DEVIL-TORRENTS.PL..html": 585, "Push (2009) [DVDRip.XviD] [Lektor PL] [D ...
创建时间: 2019-01-04 07:38:34 大小:1.38 GB 文件数量:5 热度:6 最近下载:2024-12-06 16:38:01